AUA212 EDDF-LOWW
Flight info
| Callsign | AUA212 |
|---|---|
| Flight time | N/A |
| Altitude | 31000 |
| Route | SULUS7S/18 SULUS Z650 VEMUT/N0439F350 DCT ETVIS DCT BUDWA DCT BUDEX BUDEX2W |
| Aircraft | A320/M-SDE3FGHIRWY/LB1 |
Departure
| Time | N/A |
|---|---|
| Airport | Frankfurt Main Airport (EDDF) |
Arrival
| Time | 2026-04-25 10:24 |
|---|---|
| Airport | Vienna International Airport (LOWW) |
| Time | Latitude | Longitude | Altitude | Speed | Heading |
|---|---|---|---|---|---|
| 2026-04-25 09:45 | 49.79581 | 12.48993 | 35081 ft | 484 kts | 119° |
| 2026-04-25 09:45 | 49.75980 | 12.57736 | 35073 ft | 482 kts | 127° |
| 2026-04-25 09:46 | 49.72206 | 12.66305 | 35050 ft | 482 kts | 127° |
| 2026-04-25 09:46 | 49.68429 | 12.74877 | 35072 ft | 482 kts | 127° |
| 2026-04-25 09:47 | 49.64659 | 12.83374 | 35073 ft | 482 kts | 127° |
| 2026-04-25 09:47 | 49.60864 | 12.91910 | 35066 ft | 482 kts | 127° |
| 2026-04-25 09:48 | 49.57057 | 13.00450 | 35072 ft | 483 kts | 127° |
| 2026-04-25 09:48 | 49.53252 | 13.08964 | 35072 ft | 483 kts | 127° |
| 2026-04-25 09:49 | 49.49434 | 13.17478 | 35089 ft | 483 kts | 127° |
| 2026-04-25 09:49 | 49.45638 | 13.25910 | 35088 ft | 482 kts | 127° |
| 2026-04-25 09:50 | 49.41808 | 13.34377 | 35054 ft | 482 kts | 128° |
| 2026-04-25 09:50 | 49.37985 | 13.42819 | 35064 ft | 481 kts | 128° |
| 2026-04-25 09:51 | 49.34164 | 13.51248 | 35064 ft | 481 kts | 128° |
| 2026-04-25 09:51 | 49.30340 | 13.59672 | 35065 ft | 481 kts | 128° |
| 2026-04-25 09:52 | 49.26455 | 13.68025 | 35063 ft | 481 kts | 129° |
| 2026-04-25 09:52 | 49.22501 | 13.76283 | 35080 ft | 484 kts | 129° |
| 2026-04-25 09:53 | 49.20503 | 13.80441 | 34382 ft | 487 kts | 129° |
| 2026-04-25 09:53 | 49.18487 | 13.84633 | 33399 ft | 492 kts | 130° |
| 2026-04-25 09:53 | 49.16443 | 13.88880 | 33074 ft | 501 kts | 130° |
| 2026-04-25 09:53 | 49.14367 | 13.93193 | 33063 ft | 505 kts | 129° |
| 2026-04-25 09:54 | 49.10268 | 14.01751 | 33077 ft | 488 kts | 129° |
| 2026-04-25 09:54 | 49.06293 | 14.10037 | 33068 ft | 481 kts | 130° |
| 2026-04-25 09:55 | 49.02317 | 14.18229 | 33068 ft | 480 kts | 130° |
| 2026-04-25 09:55 | 48.98341 | 14.26389 | 33068 ft | 481 kts | 130° |
| 2026-04-25 09:56 | 48.94370 | 14.34525 | 33069 ft | 482 kts | 130° |
| 2026-04-25 09:56 | 48.90331 | 14.42634 | 33050 ft | 481 kts | 131° |
| 2026-04-25 09:57 | 48.88288 | 14.46659 | 32441 ft | 479 kts | 131° |
| 2026-04-25 09:57 | 48.86234 | 14.50688 | 30500 ft | 488 kts | 131° |
| 2026-04-25 09:57 | 48.84134 | 14.54795 | 28801 ft | 492 kts | 131° |
| 2026-04-25 09:57 | 48.82084 | 14.58821 | 28275 ft | 468 kts | 131° |
| 2026-04-25 09:58 | 48.80158 | 14.62624 | 28136 ft | 439 kts | 131° |
| 2026-04-25 09:58 | 48.78330 | 14.66236 | 27812 ft | 434 kts | 131° |
| 2026-04-25 09:58 | 48.76484 | 14.69866 | 27158 ft | 433 kts | 131° |
| 2026-04-25 09:58 | 48.74639 | 14.73481 | 26541 ft | 435 kts | 130° |
| 2026-04-25 09:59 | 48.72787 | 14.77099 | 25910 ft | 434 kts | 131° |
| 2026-04-25 09:59 | 48.70940 | 14.80706 | 25337 ft | 433 kts | 130° |
| 2026-04-25 09:59 | 48.69119 | 14.84265 | 24768 ft | 431 kts | 130° |
| 2026-04-25 09:59 | 48.67286 | 14.87840 | 24208 ft | 430 kts | 130° |
| 2026-04-25 10:00 | 48.65427 | 14.91457 | 23647 ft | 429 kts | 130° |
| 2026-04-25 10:00 | 48.63597 | 14.95010 | 23065 ft | 427 kts | 130° |
| 2026-04-25 10:00 | 48.61779 | 14.98535 | 22569 ft | 423 kts | 130° |
| 2026-04-25 10:00 | 48.60082 | 15.02066 | 22080 ft | 420 kts | 123° |
| 2026-04-25 10:01 | 48.58749 | 15.05973 | 21615 ft | 418 kts | 112° |
| 2026-04-25 10:01 | 48.57865 | 15.10125 | 21146 ft | 414 kts | 104° |
| 2026-04-25 10:01 | 48.57163 | 15.14331 | 20674 ft | 411 kts | 104° |
| 2026-04-25 10:01 | 48.56452 | 15.18498 | 20198 ft | 408 kts | 104° |
| 2026-04-25 10:02 | 48.55737 | 15.22631 | 19714 ft | 406 kts | 104° |
| 2026-04-25 10:02 | 48.55019 | 15.26740 | 19225 ft | 404 kts | 104° |
| 2026-04-25 10:02 | 48.54301 | 15.30844 | 18728 ft | 403 kts | 104° |
| 2026-04-25 10:02 | 48.53585 | 15.34919 | 18203 ft | 402 kts | 104° |
| 2026-04-25 10:03 | 48.52868 | 15.38993 | 17663 ft | 400 kts | 104° |
| 2026-04-25 10:03 | 48.52175 | 15.43053 | 17151 ft | 397 kts | 101° |
| 2026-04-25 10:03 | 48.51833 | 15.47103 | 16831 ft | 393 kts | 93° |
| 2026-04-25 10:03 | 48.51624 | 15.51228 | 16650 ft | 394 kts | 93° |
| 2026-04-25 10:04 | 48.51398 | 15.55337 | 16429 ft | 393 kts | 94° |
| 2026-04-25 10:04 | 48.51159 | 15.59438 | 16195 ft | 391 kts | 94° |
| 2026-04-25 10:04 | 48.50917 | 15.63520 | 15973 ft | 389 kts | 94° |
| 2026-04-25 10:04 | 48.50678 | 15.67578 | 15750 ft | 387 kts | 94° |
| 2026-04-25 10:05 | 48.50442 | 15.71618 | 15525 ft | 386 kts | 94° |
| 2026-04-25 10:05 | 48.50209 | 15.75635 | 15311 ft | 383 kts | 94° |
| 2026-04-25 10:05 | 48.49977 | 15.79629 | 15087 ft | 382 kts | 94° |
| 2026-04-25 10:05 | 48.49743 | 15.83604 | 14867 ft | 380 kts | 94° |
| 2026-04-25 10:06 | 48.49508 | 15.87570 | 14646 ft | 378 kts | 94° |
| 2026-04-25 10:06 | 48.49272 | 15.91505 | 14430 ft | 377 kts | 94° |
| 2026-04-25 10:06 | 48.49032 | 15.95426 | 14216 ft | 375 kts | 94° |
| 2026-04-25 10:06 | 48.48797 | 15.99286 | 14006 ft | 373 kts | 94° |
| 2026-04-25 10:07 | 48.48558 | 16.03185 | 13779 ft | 371 kts | 94° |
| 2026-04-25 10:07 | 48.48320 | 16.07055 | 13553 ft | 370 kts | 94° |
| 2026-04-25 10:07 | 48.48087 | 16.10907 | 13344 ft | 369 kts | 93° |
| 2026-04-25 10:07 | 48.47900 | 16.14755 | 13124 ft | 367 kts | 92° |
| 2026-04-25 10:08 | 48.47756 | 16.18585 | 12908 ft | 365 kts | 91° |
| 2026-04-25 10:08 | 48.47629 | 16.22405 | 12694 ft | 364 kts | 91° |
| 2026-04-25 10:08 | 48.47503 | 16.26225 | 12477 ft | 363 kts | 91° |
| 2026-04-25 10:08 | 48.47369 | 16.30008 | 12268 ft | 361 kts | 91° |
| 2026-04-25 10:09 | 48.47227 | 16.33776 | 12054 ft | 360 kts | 91° |
| 2026-04-25 10:09 | 48.47079 | 16.37538 | 11844 ft | 359 kts | 91° |
| 2026-04-25 10:09 | 48.46927 | 16.41283 | 11634 ft | 357 kts | 91° |
| 2026-04-25 10:09 | 48.46776 | 16.44972 | 11422 ft | 356 kts | 91° |
| 2026-04-25 10:10 | 48.46565 | 16.48680 | 11208 ft | 356 kts | 98° |
| 2026-04-25 10:10 | 48.45778 | 16.52221 | 10996 ft | 357 kts | 116° |
| 2026-04-25 10:10 | 48.44349 | 16.55261 | 10789 ft | 357 kts | 134° |
| 2026-04-25 10:10 | 48.42415 | 16.57548 | 10585 ft | 349 kts | 152° |
| 2026-04-25 10:11 | 48.40222 | 16.58873 | 10469 ft | 333 kts | 166° |
| 2026-04-25 10:11 | 48.38031 | 16.59787 | 10348 ft | 321 kts | 166° |
| 2026-04-25 10:11 | 48.35905 | 16.60678 | 10118 ft | 314 kts | 166° |
| 2026-04-25 10:11 | 48.33819 | 16.61557 | 9955 ft | 310 kts | 166° |
| 2026-04-25 10:12 | 48.31743 | 16.62433 | 9764 ft | 310 kts | 166° |
| 2026-04-25 10:12 | 48.29672 | 16.63306 | 9578 ft | 309 kts | 166° |
| 2026-04-25 10:12 | 48.25541 | 16.65040 | 9230 ft | 307 kts | 166° |
| 2026-04-25 10:13 | 48.23484 | 16.65901 | 9068 ft | 307 kts | 166° |
| 2026-04-25 10:13 | 48.21433 | 16.66760 | 8881 ft | 306 kts | 166° |
| 2026-04-25 10:13 | 48.19382 | 16.67622 | 8695 ft | 305 kts | 166° |
| 2026-04-25 10:13 | 48.17339 | 16.68481 | 8519 ft | 304 kts | 166° |
| 2026-04-25 10:14 | 48.15329 | 16.69326 | 8367 ft | 295 kts | 166° |
| 2026-04-25 10:14 | 48.13348 | 16.70155 | 8184 ft | 301 kts | 166° |
| 2026-04-25 10:14 | 48.11324 | 16.71002 | 8001 ft | 302 kts | 166° |
| 2026-04-25 10:14 | 48.09305 | 16.71855 | 7759 ft | 301 kts | 166° |
| 2026-04-25 10:15 | 48.07288 | 16.72700 | 7587 ft | 301 kts | 166° |
| 2026-04-25 10:15 | 48.05278 | 16.73540 | 7317 ft | 299 kts | 167° |
| 2026-04-25 10:15 | 48.03277 | 16.74368 | 7032 ft | 297 kts | 168° |
| 2026-04-25 10:15 | 48.01286 | 16.75178 | 6759 ft | 296 kts | 168° |
| 2026-04-25 10:16 | 47.99299 | 16.75982 | 6528 ft | 295 kts | 168° |
| 2026-04-25 10:16 | 47.97316 | 16.76810 | 6226 ft | 294 kts | 168° |
| 2026-04-25 10:16 | 47.95384 | 16.77619 | 6014 ft | 291 kts | 168° |
| 2026-04-25 10:16 | 47.93432 | 16.78435 | 5921 ft | 292 kts | 168° |
| 2026-04-25 10:17 | 47.91481 | 16.79247 | 5959 ft | 291 kts | 168° |
| 2026-04-25 10:17 | 47.89502 | 16.79742 | 5893 ft | 284 kts | 188° |
| 2026-04-25 10:17 | 47.87698 | 16.78865 | 5964 ft | 270 kts | 220° |
| 2026-04-25 10:17 | 47.86389 | 16.76904 | 5458 ft | 266 kts | 244° |
| 2026-04-25 10:18 | 47.85798 | 16.74416 | 5248 ft | 247 kts | 266° |
| 2026-04-25 10:18 | 47.85894 | 16.71995 | 5177 ft | 226 kts | 287° |
| 2026-04-25 10:18 | 47.86528 | 16.69964 | 5072 ft | 211 kts | 304° |
| 2026-04-25 10:18 | 47.87545 | 16.68443 | 4888 ft | 205 kts | 321° |
| 2026-04-25 10:19 | 47.88834 | 16.67554 | 4598 ft | 208 kts | 340° |
| 2026-04-25 10:19 | 47.90229 | 16.67053 | 4347 ft | 204 kts | 339° |
| 2026-04-25 10:19 | 47.91586 | 16.66452 | 4065 ft | 203 kts | 338° |
| 2026-04-25 10:19 | 47.92937 | 16.65852 | 3794 ft | 200 kts | 339° |
| 2026-04-25 10:20 | 47.94265 | 16.65299 | 3569 ft | 196 kts | 340° |
| 2026-04-25 10:20 | 47.95548 | 16.64792 | 3419 ft | 184 kts | 340° |
| 2026-04-25 10:20 | 47.96740 | 16.64278 | 3075 ft | 177 kts | 340° |
| 2026-04-25 10:20 | 47.97894 | 16.63767 | 2765 ft | 166 kts | 341° |
| 2026-04-25 10:21 | 47.98951 | 16.63319 | 2641 ft | 151 kts | 342° |
| 2026-04-25 10:21 | 47.99948 | 16.62900 | 2345 ft | 146 kts | 342° |
| 2026-04-25 10:21 | 48.00892 | 16.62504 | 2166 ft | 139 kts | 344° |
| 2026-04-25 10:21 | 48.01815 | 16.62115 | 1996 ft | 136 kts | 343° |
| 2026-04-25 10:22 | 48.02726 | 16.61732 | 1816 ft | 136 kts | 341° |
| 2026-04-25 10:22 | 48.03328 | 16.61475 | 1697 ft | 135 kts | 342° |
| 2026-04-25 10:22 | 48.04237 | 16.61086 | 1587 ft | 136 kts | 342° |
| 2026-04-25 10:22 | 48.05148 | 16.60724 | 1396 ft | 135 kts | 343° |
| 2026-04-25 10:23 | 48.06040 | 16.60322 | 1166 ft | 132 kts | 341° |
| 2026-04-25 10:23 | 48.06925 | 16.59957 | 1004 ft | 132 kts | 342° |
| 2026-04-25 10:23 | 48.07801 | 16.59568 | 843 ft | 130 kts | 343° |
| 2026-04-25 10:23 | 48.08671 | 16.59216 | 677 ft | 130 kts | 343° |
| 2026-04-25 10:24 | 48.09504 | 16.58862 | 617 ft | 112 kts | 344° |
| 2026-04-25 10:24 | 48.10096 | 16.58612 | 612 ft | 67 kts | 344° |
| 2026-04-25 10:24 | 48.10343 | 16.58498 | 617 ft | 29 kts | 331° |
| 2026-04-25 10:24 | 48.10443 | 16.58309 | 615 ft | 22 kts | 300° |
| 2026-04-25 10:25 | 48.10546 | 16.58144 | 609 ft | 22 kts | 344° |
| 2026-04-25 10:25 | 48.10652 | 16.58100 | 610 ft | 12 kts | 344° |
| 2026-04-25 10:25 | 48.10738 | 16.58064 | 614 ft | 14 kts | 345° |
| 2026-04-25 10:25 | 48.10839 | 16.58021 | 621 ft | 16 kts | 344° |
| 2026-04-25 10:26 | 48.10959 | 16.57970 | 622 ft | 19 kts | 345° |
| 2026-04-25 10:26 | 48.11093 | 16.57913 | 618 ft | 21 kts | 345° |
| 2026-04-25 10:26 | 48.11238 | 16.57852 | 612 ft | 20 kts | 344° |
| 2026-04-25 10:26 | 48.11376 | 16.57794 | 612 ft | 20 kts | 344° |
| 2026-04-25 10:27 | 48.11519 | 16.57733 | 610 ft | 22 kts | 344° |
| 2026-04-25 10:27 | 48.11657 | 16.57675 | 612 ft | 20 kts | 343° |
| 2026-04-25 10:27 | 48.11782 | 16.57622 | 610 ft | 16 kts | 344° |
| 2026-04-25 10:27 | 48.11828 | 16.57511 | 614 ft | 16 kts | 255° |
| 2026-04-25 10:28 | 48.11813 | 16.57341 | 613 ft | 18 kts | 294° |
| 2026-04-25 10:28 | 48.11855 | 16.57176 | 610 ft | 16 kts | 262° |
| 2026-04-25 10:28 | 48.11885 | 16.57051 | 614 ft | 10 kts | 295° |
| 2026-04-25 10:28 | 48.11848 | 16.57000 | 610 ft | 8 kts | 201° |
| 2026-04-25 10:29 | 48.11826 | 16.56985 | 618 ft | 0 kts | 206° |